This is the latest recevied weather packets stored in our database for station/object KE5VT. If no packets are shown the sender has not sent any weather packets the latest 10 day(s).
| Time | Temp. | Humidity | Pressure | Rain* | Wind** | Luminosity | Snow |
|---|---|---|---|---|---|---|---|
| 1788029365 | 28.33° C | 73% | 1017.8 hPa | 0 mm | - | 57 W/m² | - |
| 1788029063 | 28.89° C | 72% | 1018 hPa | 0 mm | - | 45 W/m² | - |
| 1788028763 | 29.44° C | 70% | 1018 hPa | 0 mm | - | 56 W/m² | - |
| 1788028458 | 30° C | 70% | 1017.8 hPa | 0 mm | - | 100 W/m² | - |
| 1788028154 | 30° C | 69% | 1017.9 hPa | 0 mm | - | 693 W/m² | - |
| 1788027848 | 29.44° C | 69% | 1018 hPa | 0 mm | - | 690 W/m² | - |
| 1788027548 | 29.44° C | 71% | 1018 hPa | 0 mm | - | 641 W/m² | - |
| 1788027248 | 30° C | 72% | 1018.2 hPa | 0 mm | - | 676 W/m² | - |
| 1788026948 | 29.44° C | 73% | 1018.1 hPa | 0 mm | - | 643 W/m² | - |
| 1788026643 | 29.44° C | 73% | 1018.3 hPa | 0 mm | - | 120 W/m² | - |
| 1788026338 | 28.33° C | 76% | 1018.4 hPa | 0 mm | - | 81 W/m² | - |
| 1788026034 | 28.33° C | 77% | 1018.5 hPa | 0 mm | - | 104 W/m² | - |
| 1788025732 | 28.89° C | 75% | 1018.5 hPa | 0 mm | - | 267 W/m² | - |
| 1788025432 | 29.44° C | 75% | 1018.5 hPa | 0 mm | - | 121 W/m² | - |
| 1788025128 | 29.44° C | 72% | 1018.6 hPa | 0 mm | - | 149 W/m² | - |
| 1788024827 | 29.44° C | 71% | 1018.4 hPa | 0 mm | - | 183 W/m² | - |
| 1788024523 | 29.44° C | 72% | 1018.5 hPa | 0 mm | - | 500 W/m² | - |
| 1788024222 | 29.44° C | 73% | 1018.5 hPa | 0 mm | - | 172 W/m² | - |
| 1788023918 | 30° C | 72% | 1018.4 hPa | 0 mm | - | 153 W/m² | - |
| 1788023614 | 28.89° C | 72% | 1018.6 hPa | 0 mm | - | 386 W/m² | - |
| 1788023310 | 30° C | 72% | 1018.4 hPa | 0 mm | - | 660 W/m² | - |
| 1788023004 | 30° C | 70% | 1018.4 hPa | 0 mm | - | 640 W/m² | - |
| 1788022702 | 30.56° C | 67% | 1018.3 hPa | 0 mm | - | 440 W/m² | - |
| 1788022400 | 29.44° C | 70% | 1018.3 hPa | 0 mm | - | 593 W/m² | - |
| 1788022100 | 27.78° C | 76% | 1018.4 hPa | 0 mm | - | 638 W/m² | - |
* Rain latest hour (hover to see other rain measurements)
** Current wind speed in m/s (hover to see current wind gust speed)